Time;durP1;ratioP1;P1;durP2;ratioP2;P2;SDS_P1;SDS_P2;PMS_P1;PMS_P2;Temp;Humidity;BMP_temperature;BMP_pressure;BME280_temperature;BME280_humidity;BME280_pressure;Samples;Min_cycle;Max_cycle;Signal;HPM_P1;HPM_P2
2022/01/07 10:22:12;;;;;;;2.63;2.43;;;;;;;0.33;100.00;98934.06;5171161;27;20566;-81
2022/01/07 10:24:54;;;;;;;7.33;3.07;;;;;;;0.81;100.00;98926.09;5140135;27;39743;-79
2022/01/07 10:27:22;;;;;;;7.80;3.80;;;;;;;1.17;100.00;98918.31;5186501;27;40623;-79
2022/01/07 10:29:50;;;;;;;6.20;2.80;;;;;;;1.48;98.00;98919.28;5171265;27;41689;-81
2022/01/07 10:32:29;;;;;;;4.57;2.77;;;;;;;1.74;95.59;98916.84;5170742;27;43660;-82
2022/01/07 10:35:14;;;;;;;5.17;3.60;;;;;;;1.88;93.82;98897.34;5139597;27;39085;-79
2022/01/07 10:37:54;;;;;;;3.47;2.30;;;;;;;2.00;92.30;98902.25;5148615;27;42084;-79
2022/01/07 10:40:30;;;;;;;4.10;3.13;;;;;;;2.17;90.86;98910.50;5145677;27;43337;-82
2022/01/07 10:43:12;;;;;;;3.00;2.60;;;;;;;2.29;90.55;98910.13;5131974;27;40952;-79
2022/01/07 10:45:42;;;;;;;4.90;3.23;;;;;;;2.40;89.39;98902.84;5131560;27;39632;-80
2022/01/07 10:48:11;;;;;;;4.17;2.80;;;;;;;2.42;88.63;98890.59;5131530;27;41833;-79
2022/01/07 10:50:40;;;;;;;3.00;2.60;;;;;;;2.56;88.20;98889.34;5148085;27;43647;-79
2022/01/07 10:53:18;;;;;;;3.40;2.87;;;;;;;2.76;87.69;98887.81;5166152;27;43364;-81
2022/01/07 10:56:11;;;;;;;3.90;3.10;;;;;;;2.92;86.80;98885.59;5146852;27;39539;-78
2022/01/07 10:58:59;;;;;;;3.10;2.40;;;;;;;3.00;86.34;98877.50;5145340;27;42450;-80
2022/01/07 11:01:35;;;;;;;4.90;3.00;;;;;;;3.04;86.01;98874.75;5149098;27;42433;-79
2022/01/07 11:04:05;;;;;;;4.73;2.67;;;;;;;3.06;85.57;98872.94;5158512;27;43051;-78
2022/01/07 11:06:33;;;;;;;4.83;2.90;;;;;;;2.95;84.89;98838.44;5147422;27;39888;-80
2022/01/07 11:09:06;;;;;;;6.00;3.20;;;;;;;3.03;84.61;98840.78;5130756;27;40859;-80
2022/01/07 11:11:34;;;;;;;4.87;2.73;;;;;;;3.14;84.36;98856.97;5132381;27;42678;-79
2022/01/07 11:14:08;;;;;;;3.43;2.27;;;;;;;3.16;84.19;98863.88;5144500;27;41992;-80
2022/01/07 11:16:39;;;;;;;4.60;2.50;;;;;;;3.12;84.31;98862.25;5147293;27;40103;-78
2022/01/07 11:19:08;;;;;;;3.07;2.60;;;;;;;3.02;84.06;98844.31;5130846;27;40662;-78
2022/01/07 11:21:37;;;;;;;5.03;3.17;;;;;;;2.98;84.39;98843.53;5133033;27;42740;-79
2022/01/07 11:24:48;;;;;;;3.87;3.30;;;;;;;3.10;84.35;98856.22;5155864;27;41272;-81
2022/01/07 11:27:20;;;;;;;4.07;3.20;;;;;;;3.03;84.27;98841.63;5136199;27;40380;-80
2022/01/07 11:30:11;;;;;;;3.07;2.27;;;;;;;3.08;84.51;98844.97;5169988;27;40638;-80
2022/01/07 11:32:40;;;;;;;2.60;2.00;;;;;;;3.04;84.49;98843.34;5147527;27;41717;-81
2022/01/07 11:35:41;;;;;;;3.63;2.60;;;;;;;2.93;84.75;98835.00;5116702;27;41308;-82
2022/01/07 11:38:31;;;;;;;8.03;3.40;;;;;;;2.83;85.22;98838.81;5116768;27;39831;-81
2022/01/07 11:41:00;;;;;;;13.37;3.67;;;;;;;2.69;85.53;98809.63;5127956;27;41090;-81
2022/01/07 11:43:33;;;;;;;3.43;2.50;;;;;;;2.68;85.78;98813.16;5120184;27;43163;-81
2022/01/07 11:46:21;;;;;;;2.83;2.10;;;;;;;2.80;86.02;98834.53;5130331;27;42185;-81
2022/01/07 11:48:48;;;;;;;3.50;2.40;;;;;;;2.78;85.88;98827.63;5116711;27;39394;-80
2022/01/07 11:51:17;;;;;;;5.00;2.53;;;;;;;2.91;86.01;98836.81;5147089;27;40870;-81
2022/01/07 11:54:13;;;;;;;3.63;2.40;;;;;;;3.00;85.92;98840.88;5150276;27;41706;-82
2022/01/07 11:56:42;;;;;;;5.20;3.13;;;;;;;3.00;85.54;98836.50;5094178;27;41199;-81
2022/01/07 11:59:19;;;;;;;6.43;3.23;;;;;;;3.03;85.31;98836.41;5140859;27;38786;-82
2022/01/07 12:02:02;;;;;;;4.90;3.00;;;;;;;3.00;85.30;98815.56;5159638;27;40894;-81
2022/01/07 12:04:31;;;;;;;5.53;2.27;;;;;;;3.16;84.94;98831.63;5169983;27;43722;-83
2022/01/07 12:07:01;;;;;;;2.73;2.20;;;;;;;3.15;84.83;98828.16;5153290;27;42313;-81
2022/01/07 12:09:31;;;;;;;4.63;2.03;;;;;;;3.21;84.67;98835.78;5154001;27;41039;-80
2022/01/07 12:12:01;;;;;;;2.83;2.30;;;;;;;3.18;84.75;98814.97;5134191;27;40918;-81
2022/01/07 12:14:34;;;;;;;4.37;2.73;;;;;;;3.37;84.51;98827.44;5143353;27;43004;-82
2022/01/07 12:17:04;;;;;;;3.47;2.20;;;;;;;3.21;83.98;98793.91;5141121;27;41342;-85
2022/01/07 12:20:28;;;;;;;3.67;2.33;;;;;;;3.42;83.71;98813.28;5158618;27;38922;-87
2022/01/07 12:22:56;;;;;;;2.20;1.90;;;;;;;3.41;83.46;98813.34;5132393;27;41909;-87
2022/01/07 12:25:24;;;;;;;4.33;2.50;;;;;;;3.30;83.82;98791.91;5158461;27;42619;-84
2022/01/07 12:28:04;;;;;;;4.47;2.33;;;;;;;3.26;83.54;98796.41;5149103;27;41968;-82
2022/01/07 12:30:34;;;;;;;5.30;2.40;;;;;;;3.19;83.69;98790.53;5145682;27;40399;-84
2022/01/07 12:33:09;;;;;;;4.23;2.83;;;;;;;3.31;83.64;98804.97;5139115;27;40549;-87
2022/01/07 12:35:37;;;;;;;3.80;2.33;;;;;;;3.27;83.67;98798.09;5144508;27;41685;-86
2022/01/07 12:38:16;;;;;;;4.23;2.10;;;;;;;3.22;83.73;98784.31;5136609;27;40700;-86
2022/01/07 12:40:52;;;;;;;4.27;2.83;;;;;;;3.22;83.64;98772.09;5146040;27;40601;-84
2022/01/07 12:43:21;;;;;;;3.57;2.60;;;;;;;3.23;83.48;98773.78;5138396;27;41778;-86
2022/01/07 12:45:58;;;;;;;3.90;2.57;;;;;;;3.19;83.35;98772.22;5133953;27;41870;-85
2022/01/07 12:48:38;;;;;;;3.67;2.07;;;;;;;3.32;83.25;98774.41;5146719;27;41214;-84
2022/01/07 12:51:07;;;;;;;2.70;2.17;;;;;;;3.35;83.36;98776.88;5143846;27;38925;-88
2022/01/07 12:53:35;;;;;;;4.47;2.40;;;;;;;3.34;83.17;98769.97;5156354;27;41697;-88
2022/01/07 12:56:22;;;;;;;3.80;2.27;;;;;;;3.40;83.09;98773.22;5146288;27;41680;-87
2022/01/07 12:58:50;;;;;;;3.23;2.43;;;;;;;3.39;83.01;98762.81;5138945;27;40807;-86
2022/01/07 13:01:30;;;;;;;2.87;1.90;;;;;;;3.43;83.09;98767.88;5139252;27;38863;-85
2022/01/07 13:04:02;;;;;;;3.00;2.13;;;;;;;3.50;82.72;98747.56;5148422;27;41888;-84
2022/01/07 13:06:30;;;;;;;4.30;2.17;;;;;;;3.62;82.23;98768.06;5152134;27;43060;-83
2022/01/07 13:08:57;;;;;;;3.33;2.57;;;;;;;3.58;82.59;98762.13;5127722;27;42146;-83
2022/01/07 13:11:25;;;;;;;2.83;2.10;;;;;;;3.56;82.38;98755.22;5154063;27;38737;-83
2022/01/07 13:14:03;;;;;;;5.20;2.67;;;;;;;3.50;82.57;98747.56;5138503;27;40892;-88
2022/01/07 13:16:32;;;;;;;3.57;2.00;;;;;;;3.59;82.56;98761.19;5131876;27;43059;-87
2022/01/07 13:19:05;;;;;;;2.83;1.93;;;;;;;3.63;82.16;98761.94;5157204;27;42082;-87
2022/01/07 13:21:34;;;;;;;2.97;2.27;;;;;;;3.45;81.90;98733.81;5138977;27;39025;-88
2022/01/07 13:24:02;;;;;;;2.20;1.70;;;;;;;3.49;81.89;98751.94;5135539;27;41529;-84
2022/01/07 13:26:31;;;;;;;1.73;1.63;;;;;;;3.54;81.81;98765.75;5137283;27;42071;-85
2022/01/07 13:29:16;;;;;;;4.83;2.47;;;;;;;3.36;81.87;98741.97;5151435;27;42165;-84
2022/01/07 13:31:46;;;;;;;3.77;2.40;;;;;;;3.55;81.97;98761.38;5118909;27;38885;-85
2022/01/07 13:34:22;;;;;;;2.33;1.60;;;;;;;3.49;81.74;98767.66;5153888;27;41670;-83
